createdAt,value
2023-04-12T00:01:02.353Z,54001.34
2023-04-12T00:03:29.127Z,54017.91
2023-04-12T00:05:55.577Z,54007.56
2023-04-12T00:08:26.413Z,54028.25
2023-04-12T00:11:00.973Z,53991.03
2023-04-12T00:13:27.415Z,54017.91
2023-04-12T00:15:53.705Z,54011.69
2023-04-12T00:18:20.089Z,53991.03
2023-04-12T00:20:46.393Z,53980.69
2023-04-12T00:23:17.160Z,54032.38
2023-04-12T00:25:43.498Z,54013.75
2023-04-12T00:28:10.971Z,54017.91
2023-04-12T00:30:37.404Z,54013.75
2023-04-12T00:33:03.814Z,54036.50
2023-04-12T00:35:30.425Z,54079.94
2023-04-12T00:37:56.842Z,54125.44
2023-04-12T00:40:23.120Z,54133.69
2023-04-12T00:42:49.512Z,54152.31
2023-04-12T00:45:16.230Z,54166.78
2023-04-12T00:47:52.379Z,54193.66
2023-04-12T00:50:18.659Z,54259.84
2023-04-12T00:52:44.952Z,54245.34
2023-04-12T00:55:19.142Z,54309.47
2023-04-12T00:57:53.118Z,54323.94
2023-04-12T01:00:19.451Z,54354.94
2023-04-12T01:02:50.946Z,54404.59
2023-04-12T01:05:27.229Z,54472.81
2023-04-12T01:08:10.652Z,54543.13
2023-04-12T01:10:55.729Z,54559.69
2023-04-12T01:13:28.674Z,54652.75
2023-04-12T01:15:59.316Z,54718.91
2023-04-12T01:18:25.637Z,54754.06
2023-04-12T01:20:54.883Z,54822.31
2023-04-12T01:23:40.013Z,54977.44
2023-04-12T01:26:12.666Z,55080.84
2023-04-12T01:28:41.126Z,55267.00
2023-04-12T01:31:08.681Z,55422.13
2023-04-12T01:33:37.335Z,55612.44
2023-04-12T01:36:07.577Z,55850.31
2023-04-12T01:38:38.472Z,56088.22
2023-04-12T01:41:04.881Z,56350.97
2023-04-12T01:43:31.625Z,56495.78
2023-04-12T01:45:57.919Z,56897.19
2023-04-12T01:48:24.312Z,57366.94
2023-04-12T01:51:07.087Z,57455.94
2023-04-12T01:53:38.161Z,57836.72
2023-04-12T01:56:06.640Z,58101.66
2023-04-12T01:58:32.933Z,58449.41
2023-04-12T02:00:59.269Z,58875.84
2023-04-12T02:03:25.809Z,59070.47
2023-04-12T02:05:52.257Z,59316.84
2023-04-12T02:08:18.549Z,59567.38
2023-04-12T02:10:44.833Z,60445.41
2023-04-12T02:13:11.273Z,60710.50
2023-04-12T02:15:38.440Z,60843.06
2023-04-12T02:18:04.860Z,61110.28
2023-04-12T02:20:31.205Z,60961.13
2023-04-12T02:22:57.592Z,60809.94
2023-04-12T02:25:27.322Z,60888.66
2023-04-12T02:27:53.623Z,60664.94
2023-04-12T02:30:20.365Z,60387.41
2023-04-12T02:32:47.188Z,60760.22
2023-04-12T02:35:14.231Z,60758.16
2023-04-12T02:37:41.110Z,60708.44
2023-04-12T02:40:13.323Z,60553.09
2023-04-12T02:42:40.495Z,60124.41
2023-04-12T02:45:07.113Z,59915.25
2023-04-12T02:47:33.440Z,60180.31
2023-04-12T02:49:59.824Z,60126.47
2023-04-12T02:52:26.150Z,60333.56
2023-04-12T02:54:52.740Z,60766.44
2023-04-12T02:57:21.719Z,60909.34
2023-04-12T02:59:53.430Z,61605.38
2023-04-12T03:02:20.497Z,62077.75
2023-04-12T03:04:47.250Z,62028.03
2023-04-12T03:07:13.978Z,62098.47
2023-04-12T03:09:42.460Z,63897.28
2023-04-12T03:12:08.771Z,64266.28
2023-04-12T03:14:35.112Z,65555.94
2023-04-12T03:17:01.534Z,66665.53
2023-04-12T03:19:29.009Z,66134.53
2023-04-12T03:21:55.493Z,65356.84
2023-04-12T03:24:21.787Z,64776.28
2023-04-12T03:26:48.101Z,65541.41
2023-04-12T03:29:14.442Z,64981.56
2023-04-12T03:31:40.946Z,64343.00
2023-04-12T03:34:08.273Z,64343.00
2023-04-12T03:36:34.844Z,63862.06
2023-04-12T03:39:04.237Z,63733.53
2023-04-12T03:41:30.610Z,63327.31
2023-04-12T03:43:57.146Z,62413.41
2023-04-12T03:46:34.198Z,61568.09
2023-04-12T03:49:00.741Z,61547.38
2023-04-12T03:51:27.113Z,61711.03
2023-04-12T03:53:54.397Z,61365.06
2023-04-12T03:56:20.857Z,60420.56
2023-04-12T03:58:47.356Z,60925.94
2023-04-12T04:01:13.831Z,60192.75
2023-04-12T04:03:40.992Z,59515.63
2023-04-12T04:06:07.705Z,59542.53
2023-04-12T04:08:34.140Z,58993.88
2023-04-12T04:11:00.764Z,58795.13
2023-04-12T04:13:27.097Z,58517.72
2023-04-12T04:15:59.130Z,58395.59
2023-04-12T04:18:25.598Z,58143.06
2023-04-12T04:20:52.077Z,58165.81
2023-04-12T04:23:18.449Z,58095.44
2023-04-12T04:25:45.318Z,57954.72
2023-04-12T04:28:11.625Z,58060.25
2023-04-12T04:30:40.856Z,58161.69
2023-04-12T04:33:07.730Z,57977.47
2023-04-12T04:35:34.049Z,58070.63
2023-04-12T04:38:03.416Z,58107.88
2023-04-12T04:40:29.712Z,58312.78
2023-04-12T04:42:56.795Z,58604.66
2023-04-12T04:45:26.640Z,58780.63
2023-04-12T04:47:56.524Z,58937.97
2023-04-12T04:50:23.254Z,59194.69
2023-04-12T04:52:50.923Z,59492.84
2023-04-12T04:55:25.299Z,59567.38
2023-04-12T04:57:51.880Z,59639.84
2023-04-12T05:00:18.891Z,59795.16
2023-04-12T05:02:45.604Z,60155.47
2023-04-12T05:05:16.006Z,60664.94
2023-04-12T05:07:43.450Z,61537.00
2023-04-12T05:10:10.599Z,62664.13
2023-04-12T05:12:37.283Z,63377.03
2023-04-12T05:15:11.657Z,64349.22
2023-04-12T05:17:38.699Z,66012.19
2023-04-12T05:20:08.121Z,67281.66
2023-04-12T05:22:35.517Z,69188.69
2023-04-12T05:25:02.624Z,70880.66
2023-04-12T05:27:29.170Z,73759.72
2023-04-12T05:29:57.935Z,75355.94
2023-04-12T05:32:24.753Z,76154.28
2023-04-12T05:34:51.071Z,78283.97
2023-04-12T05:37:17.377Z,80148.38
2023-04-12T05:39:43.694Z,81747.16
2023-04-12T05:42:10.088Z,83346.53
2023-04-12T05:44:36.839Z,84946.56
2023-04-12T05:47:03.673Z,87080.94
2023-04-12T05:49:31.230Z,87347.81
2023-04-12T05:51:57.982Z,88682.47
2023-04-12T05:54:25.333Z,88949.44
2023-04-12T05:56:54.518Z,88949.44
2023-04-12T05:59:20.831Z,90284.63
2023-04-12T06:01:47.226Z,90818.81
2023-04-12T06:04:14.652Z,91085.94
2023-04-12T06:06:41.118Z,91353.06
2023-04-12T06:09:07.463Z,91085.94
2023-04-12T06:11:33.844Z,90551.69
2023-04-12T06:14:00.679Z,90284.63
2023-04-12T06:16:27.337Z,91085.94
2023-04-12T06:18:53.668Z,90284.63
2023-04-12T06:21:20.276Z,90017.53
2023-04-12T06:23:46.590Z,89750.50
2023-04-12T06:26:12.901Z,89750.50
2023-04-12T06:28:39.171Z,89750.50
2023-04-12T06:31:05.692Z,89483.47
2023-04-12T06:33:31.971Z,89483.47
2023-04-12T06:35:58.491Z,87881.63
2023-04-12T06:38:24.816Z,87614.72
2023-04-12T06:40:51.393Z,88682.47
2023-04-12T06:43:20.194Z,88949.44
2023-04-12T06:45:46.702Z,88949.44
2023-04-12T06:48:12.985Z,88415.50
2023-04-12T06:50:39.488Z,88682.47
2023-04-12T06:53:06.241Z,89216.44
2023-04-12T06:55:32.558Z,90284.63
2023-04-12T06:58:01.466Z,90284.63
2023-04-12T07:00:27.835Z,90551.69
2023-04-12T07:02:54.365Z,91887.41
2023-04-12T07:05:21.258Z,92154.59
2023-04-12T07:07:47.554Z,91620.22
2023-04-12T07:10:13.890Z,92421.81
2023-04-12T07:12:40.320Z,92689.03
2023-04-12T07:15:06.817Z,92956.28
2023-04-12T07:17:33.165Z,92154.59
2023-04-12T07:19:59.467Z,92689.03
2023-04-12T07:22:26.244Z,93223.56
2023-04-12T07:24:52.753Z,91353.06
2023-04-12T07:27:19.055Z,90551.69
2023-04-12T07:29:45.465Z,91620.22
2023-04-12T07:32:11.851Z,91085.94
2023-04-12T07:34:39.390Z,91353.06
2023-04-12T07:37:06.155Z,90284.63
2023-04-12T07:39:34.664Z,89750.50
2023-04-12T07:42:01.557Z,90818.81
2023-04-12T07:44:27.938Z,91887.41
2023-04-12T07:46:54.227Z,92154.59
2023-04-12T07:49:21.013Z,92421.81
2023-04-12T07:51:47.988Z,91353.06
2023-04-12T07:54:14.492Z,92956.28
2023-04-12T07:56:41.192Z,92956.28
2023-04-12T07:59:07.620Z,94560.16
2023-04-12T08:01:33.979Z,94827.50
2023-04-12T08:04:01.580Z,95629.72
2023-04-12T08:06:30.666Z,96432.09
2023-04-12T08:08:58.732Z,97234.66
2023-04-12T08:11:25.080Z,97502.19
2023-04-12T08:13:51.529Z,97502.19
2023-04-12T08:16:17.930Z,97502.19
2023-04-12T08:18:44.290Z,98840.19
2023-04-12T08:21:10.705Z,99375.53
2023-04-12T08:23:37.073Z,98572.56
2023-04-12T08:26:03.777Z,98572.56
2023-04-12T08:28:30.923Z,99107.84
2023-04-12T08:30:57.877Z,98304.94
2023-04-12T08:33:24.274Z,97769.75
2023-04-12T08:35:50.972Z,97234.66
2023-04-12T08:38:17.291Z,97234.66
2023-04-12T08:40:47.223Z,96432.09
2023-04-12T08:43:14.055Z,96699.59
2023-04-12T08:45:45.022Z,96432.09
2023-04-12T08:48:11.389Z,95362.31
2023-04-12T08:50:37.705Z,95897.19
2023-04-12T08:53:04.086Z,95629.72
2023-04-12T08:55:30.479Z,96699.59
2023-04-12T08:57:57.094Z,97769.75
2023-04-12T09:00:23.545Z,98304.94
2023-04-12T09:02:50.496Z,99643.22
2023-04-12T09:05:17.229Z,100446.38
2023-04-12T09:07:43.572Z,101517.53
2023-04-12T09:10:09.948Z,102321.06
2023-04-12T09:12:37.850Z,102588.97
2023-04-12T09:15:12.752Z,103392.72
2023-04-12T09:17:40.574Z,102588.97
2023-04-12T09:20:16.021Z,102588.97
2023-04-12T09:22:45.154Z,102321.06
2023-04-12T09:25:15.060Z,103124.78
2023-04-12T09:27:48.087Z,103660.66
2023-04-12T09:30:15.355Z,105000.69
2023-04-12T09:32:42.182Z,105536.84
2023-04-12T09:35:08.679Z,106073.06
2023-04-12T09:37:35.003Z,106341.19
2023-04-12T09:40:02.341Z,106341.19
2023-04-12T09:42:33.745Z,106073.06
2023-04-12T09:45:01.505Z,105804.94
2023-04-12T09:47:39.093Z,105000.69
2023-04-12T09:50:09.560Z,105000.69
2023-04-12T09:52:37.797Z,105804.94
2023-04-12T09:55:09.291Z,106073.06
2023-04-12T09:57:40.454Z,105536.84
2023-04-12T10:00:17.380Z,103660.66
2023-04-12T10:02:48.366Z,101517.53
2023-04-12T10:05:19.727Z,100714.16
2023-04-12T10:07:46.809Z,96967.13
2023-04-12T10:10:13.758Z,94827.50
2023-04-12T10:12:40.946Z,91353.06
2023-04-12T10:17:45.077Z,87614.72
2023-04-12T10:20:11.899Z,87347.81
2023-04-12T10:22:51.445Z,87080.94
2023-04-12T10:25:20.879Z,87614.72
2023-04-12T10:27:47.910Z,89216.44
2023-04-12T10:30:20.425Z,92154.59
2023-04-12T10:32:46.839Z,93758.13
2023-04-12T10:35:13.253Z,87614.72
2023-04-12T10:37:58.072Z,67640.56
2023-04-12T10:40:24.460Z,69456.44
2023-04-12T10:43:05.574Z,74557.75
2023-04-12T10:45:31.872Z,77485.19
2023-04-12T10:48:01.910Z,76952.78
2023-04-12T10:50:30.068Z,79349.25
2023-04-12T10:53:18.260Z,76420.41
2023-04-12T10:55:45.277Z,76154.28
2023-04-12T10:58:11.929Z,70988.63
2023-04-12T11:00:56.864Z,65526.91
2023-04-12T11:03:23.732Z,65609.84
2023-04-12T11:06:09.266Z,59612.94
2023-04-12T11:08:46.219Z,58710.25
2023-04-12T11:11:22.478Z,56007.53
2023-04-12T11:13:49.051Z,55415.91
2023-04-12T11:16:15.521Z,56309.59
2023-04-12T11:18:41.945Z,56040.63
2023-04-12T11:21:08.409Z,55626.91
2023-04-12T11:23:36.298Z,54882.28
2023-04-12T11:26:03.427Z,54936.06
2023-04-12T11:28:31.794Z,54667.22
2023-04-12T11:30:59.521Z,54539.00
2023-04-12T11:33:39.020Z,54878.16
2023-04-12T11:36:14.430Z,54679.63
2023-04-12T11:38:41.128Z,54764.41
2023-04-12T11:41:08.217Z,54576.22
2023-04-12T11:43:34.924Z,54570.03
2023-04-12T11:46:01.428Z,54520.38
2023-04-12T11:48:28.183Z,54518.31
2023-04-12T11:51:07.606Z,54315.66
2023-04-12T11:53:37.509Z,54266.03
2023-04-12T11:56:03.911Z,54061.31
2023-04-12T11:58:30.427Z,54090.28
2023-04-12T12:00:59.891Z,54210.19
2023-04-12T12:03:26.634Z,53922.78
2023-04-12T12:05:53.683Z,53918.66
2023-04-12T12:08:20.193Z,53852.50
2023-04-12T12:13:18.565Z,53794.59
2023-04-12T12:15:45.619Z,53852.50
2023-04-12T12:18:12.074Z,53771.84
2023-04-12T12:20:48.804Z,53782.19
2023-04-12T12:23:30.882Z,53724.28
2023-04-12T12:26:14.345Z,53716.03
2023-04-12T12:28:44.783Z,53749.09
2023-04-12T12:31:12.594Z,53780.13
2023-04-12T12:33:46.622Z,53740.84
2023-04-12T12:36:16.925Z,53747.03
2023-04-12T12:38:43.299Z,53749.09
2023-04-12T12:41:16.853Z,53757.38
2023-04-12T12:43:50.192Z,53718.09
2023-04-12T12:46:18.581Z,53738.78
2023-04-12T12:48:45.613Z,53742.91
2023-04-12T12:51:12.850Z,53711.91
2023-04-12T12:53:39.831Z,53747.03
2023-04-12T12:56:06.679Z,53755.31
2023-04-12T12:58:33.008Z,53773.91
2023-04-12T13:00:59.510Z,53763.59
2023-04-12T13:03:26.164Z,53782.19
2023-04-12T13:05:52.775Z,53753.25
2023-04-12T13:08:19.093Z,53757.38
2023-04-12T13:10:45.884Z,53778.06
2023-04-12T13:13:12.207Z,53761.50
2023-04-12T13:15:38.524Z,53773.91
2023-04-12T13:18:04.921Z,53761.50
2023-04-12T13:20:31.471Z,53769.78
2023-04-12T13:22:57.790Z,53780.13
2023-04-12T13:25:26.245Z,53813.19
2023-04-12T13:27:52.647Z,53800.81
2023-04-12T13:30:19.218Z,53788.41
2023-04-12T13:32:45.701Z,53827.69
2023-04-12T13:35:12.159Z,53827.69
2023-04-12T13:37:38.489Z,53827.69
2023-04-12T13:40:05.048Z,53858.69
2023-04-12T13:42:32.201Z,54108.88
2023-04-12T13:44:58.717Z,54749.94
2023-04-12T13:47:26.392Z,56303.38
2023-04-12T13:49:54.194Z,61677.88
2023-04-12T13:52:20.872Z,76154.28
2023-04-12T13:54:47.164Z,83613.16
2023-04-12T13:57:13.570Z,89216.44
2023-04-12T13:59:39.893Z,93223.56
2023-04-12T14:02:06.361Z,95897.19
2023-04-12T14:04:32.725Z,98572.56
2023-04-12T14:06:59.128Z,99643.22
2023-04-12T14:09:26.125Z,99910.91
2023-04-12T14:11:55.103Z,96164.63
2023-04-12T14:14:25.213Z,92689.03
2023-04-12T14:16:53.450Z,90818.81
2023-04-12T14:19:22.354Z,88949.44
2023-04-12T14:21:48.873Z,90017.53
2023-04-12T14:24:16.066Z,90551.69
2023-04-12T14:26:42.593Z,92421.81
2023-04-12T14:29:09.627Z,91620.22
2023-04-12T14:31:36.313Z,90284.63
2023-04-12T14:34:03.277Z,93758.13
2023-04-12T14:36:30.081Z,94827.50
2023-04-12T14:38:56.702Z,94025.47
2023-04-12T14:41:23.189Z,95897.19
2023-04-12T14:43:49.822Z,94025.47
2023-04-12T14:46:16.608Z,95362.31
2023-04-12T14:48:43.105Z,96699.59
2023-04-12T14:51:09.386Z,95897.19
2023-04-12T14:53:35.682Z,96164.63
2023-04-12T14:56:02.567Z,94560.16
2023-04-12T14:58:29.880Z,92956.28
2023-04-12T15:00:56.797Z,92154.59
2023-04-12T15:03:26.706Z,91887.41
2023-04-12T15:05:53.289Z,91085.94
2023-04-12T15:08:19.921Z,90551.69
2023-04-12T15:10:46.499Z,87614.72
2023-04-12T15:13:12.782Z,80947.69
2023-04-12T15:15:39.332Z,78550.25
2023-04-12T15:18:05.897Z,78283.97
2023-04-12T15:20:32.433Z,78550.25
2023-04-12T15:22:58.745Z,80947.69
2023-04-12T15:25:25.156Z,68601.31
2023-04-12T15:27:51.572Z,65871.16
2023-04-12T15:30:17.869Z,67109.44
2023-04-12T15:32:44.206Z,64730.69
2023-04-12T15:35:25.204Z,63171.88
2023-04-12T15:37:53.683Z,63051.66
2023-04-12T15:40:21.078Z,60194.81
2023-04-12T15:42:49.866Z,58689.53
2023-04-12T15:45:16.418Z,59273.38
2023-04-12T15:47:42.858Z,58263.13
2023-04-12T15:50:09.635Z,56967.56
2023-04-12T15:52:36.359Z,56566.13
2023-04-12T15:55:05.291Z,56367.50
2023-04-12T15:57:32.334Z,57749.81
2023-04-12T15:59:59.910Z,57269.69
2023-04-12T16:02:26.501Z,56011.69
2023-04-12T16:04:55.778Z,55420.06
2023-04-12T16:07:22.426Z,54878.16
2023-04-12T16:09:48.750Z,54944.34
2023-04-12T16:12:15.080Z,55155.31
2023-04-12T16:14:41.917Z,56046.84
2023-04-12T16:17:10.677Z,56694.41
2023-04-12T16:19:37.453Z,56210.28
2023-04-12T16:22:06.254Z,56369.59
2023-04-12T16:24:33.808Z,56477.16
2023-04-12T16:27:00.520Z,57787.06
2023-04-12T16:29:27.132Z,61733.81
2023-04-12T16:31:53.502Z,63644.41
2023-04-12T16:34:21.884Z,66368.91
2023-04-12T16:36:48.576Z,69813.47
2023-04-12T16:39:14.891Z,75888.13
2023-04-12T16:41:41.548Z,79349.25
2023-04-12T16:44:07.948Z,80148.38
2023-04-12T16:46:34.240Z,82280.22
2023-04-12T16:49:03.594Z,74557.75
2023-04-12T16:51:36.752Z,74291.72
2023-04-12T16:54:03.749Z,68391.72
2023-04-12T16:56:30.071Z,73493.75
2023-04-12T16:58:56.456Z,71100.78
2023-04-12T17:01:25.191Z,67588.69
2023-04-12T17:03:51.584Z,69740.81
2023-04-12T17:06:19.471Z,74291.72
2023-04-12T17:08:46.520Z,75089.84
2023-04-12T17:11:12.816Z,73759.72
2023-04-12T17:13:39.183Z,68624.16
2023-04-12T17:16:05.881Z,68117.81
2023-04-12T17:18:33.440Z,66947.63
2023-04-12T17:20:59.780Z,68146.84
2023-04-12T17:23:26.062Z,71892.03
2023-04-12T17:25:52.492Z,73759.72
2023-04-12T17:28:19.398Z,74557.75
2023-04-12T17:30:45.959Z,76686.59
2023-04-12T17:33:12.469Z,78017.69
2023-04-12T17:35:40.477Z,76952.78
2023-04-12T17:38:07.212Z,75355.94
2023-04-12T17:40:33.528Z,77485.19
2023-04-12T17:42:59.838Z,79882.00
2023-04-12T17:45:26.560Z,78283.97
2023-04-12T17:47:54.608Z,78283.97
2023-04-12T17:50:22.227Z,78816.56
2023-04-12T17:52:48.959Z,78816.56
2023-04-12T17:55:19.229Z,80148.38
2023-04-12T17:57:45.706Z,80414.81
2023-04-12T18:00:12.222Z,79349.25
2023-04-12T18:02:38.826Z,82546.75
2023-04-12T18:05:05.647Z,82813.34
2023-04-12T18:07:32.670Z,84679.84
2023-04-12T18:09:58.976Z,88415.50
2023-04-12T18:12:25.267Z,89750.50
2023-04-12T18:14:51.549Z,90818.81
2023-04-12T18:17:18.198Z,92689.03
2023-04-12T18:19:44.641Z,95362.31
2023-04-12T18:22:12.897Z,96967.13
2023-04-12T18:24:39.433Z,96432.09
2023-04-12T18:27:07.357Z,95897.19
2023-04-12T18:29:33.752Z,95362.31
2023-04-12T18:32:07.657Z,94560.16
2023-04-12T18:34:33.991Z,95094.91
2023-04-12T18:37:00.456Z,96699.59
2023-04-12T18:39:30.581Z,97502.19
2023-04-12T18:44:37.785Z,98037.34
2023-04-12T18:47:04.225Z,98037.34
2023-04-12T18:49:33.715Z,97769.75
2023-04-12T18:52:00.143Z,98037.34
2023-04-12T18:54:32.578Z,99107.84
2023-04-12T18:57:04.298Z,100178.63
2023-04-12T18:59:31.140Z,100446.38
2023-04-12T19:01:57.779Z,101517.53
2023-04-12T19:04:24.291Z,102588.97
2023-04-12T19:06:50.809Z,102856.84
2023-04-12T19:09:19.381Z,102856.84
2023-04-12T19:11:46.316Z,102588.97
2023-04-12T19:14:12.948Z,102588.97
2023-04-12T19:16:39.512Z,102321.06
2023-04-12T19:19:08.377Z,102053.22
2023-04-12T19:21:38.476Z,102321.06
2023-04-12T19:24:07.153Z,102588.97
2023-04-12T19:26:36.518Z,102856.84
2023-04-12T19:29:02.869Z,102856.84
2023-04-12T19:31:29.249Z,102856.84
2023-04-12T19:33:56.271Z,102856.84
2023-04-12T19:36:25.689Z,103392.72
2023-04-12T19:38:52.136Z,103392.72
2023-04-12T19:41:19.751Z,103660.66
2023-04-12T19:43:48.700Z,103392.72
2023-04-12T19:46:16.524Z,104196.63
2023-04-12T19:48:56.928Z,105000.69
2023-04-12T19:51:23.368Z,105268.75
2023-04-12T19:53:52.653Z,106341.19
2023-04-12T19:56:29.812Z,107145.69
2023-04-12T19:58:57.035Z,107682.09
2023-04-12T20:01:23.606Z,107950.34
2023-04-12T20:03:52.526Z,107950.34
2023-04-12T20:06:19.084Z,107682.09
2023-04-12T20:08:45.408Z,106877.50
2023-04-12T20:11:17.931Z,105268.75
2023-04-12T20:13:44.406Z,102321.06
2023-04-12T20:16:11.011Z,98572.56
2023-04-12T20:18:42.360Z,95362.31
2023-04-12T20:21:10.134Z,91887.41
2023-04-12T20:23:36.928Z,85480.06
2023-04-12T20:26:03.895Z,79882.00
2023-04-12T20:28:32.599Z,75089.84
2023-04-12T20:31:00.811Z,73759.72
2023-04-12T20:33:27.150Z,66808.66
2023-04-12T20:35:54.051Z,60333.56
2023-04-12T20:38:24.612Z,57037.91
2023-04-12T20:40:54.602Z,56079.94
2023-04-12T20:43:23.467Z,55775.84
2023-04-12T20:45:50.709Z,55854.44
2023-04-12T20:48:19.347Z,55947.53
2023-04-12T20:50:46.202Z,55597.94
2023-04-12T20:53:15.667Z,55796.53
2023-04-12T20:55:42.438Z,55802.75
2023-04-12T20:58:09.154Z,56024.09
2023-04-12T21:01:00.029Z,56125.47
2023-04-12T21:03:24.648Z,56030.28
2023-04-12T21:05:52.604Z,56067.53
2023-04-12T21:08:19.112Z,56135.81
2023-04-12T21:10:48.194Z,56386.13
2023-04-12T21:13:14.542Z,56226.84
2023-04-12T21:15:43.294Z,56355.09
2023-04-12T21:18:09.850Z,56686.16
2023-04-12T21:20:36.199Z,56946.84
2023-04-12T21:23:04.209Z,57139.31
2023-04-12T21:25:31.584Z,57706.34
2023-04-12T21:27:58.186Z,58062.34
2023-04-12T21:30:26.820Z,58358.34
2023-04-12T21:32:53.818Z,58565.34
2023-04-12T21:35:23.007Z,58923.47
2023-04-12T21:37:54.106Z,59391.38
2023-04-12T21:40:30.776Z,60843.06
2023-04-12T21:42:57.140Z,61889.19
2023-04-12T21:45:24.346Z,62892.09
2023-04-12T21:47:50.648Z,62856.84
2023-04-12T21:50:17.070Z,62614.41
2023-04-12T21:52:46.681Z,62628.91
2023-04-12T21:55:15.399Z,63091.03
2023-04-12T21:57:44.547Z,63149.06
2023-04-12T22:00:15.710Z,61781.47
2023-04-12T22:02:42.541Z,60919.72
2023-04-12T22:05:09.349Z,59741.31
2023-04-12T22:07:35.792Z,59490.78
2023-04-12T22:10:02.581Z,59420.38
2023-04-12T22:12:29.114Z,58975.22
2023-04-12T22:14:57.633Z,58991.78
2023-04-12T22:17:24.033Z,58956.59
2023-04-12T22:19:51.329Z,58931.75
2023-04-12T22:22:17.706Z,58799.25
2023-04-12T22:24:44.074Z,58838.59
2023-04-12T22:27:10.715Z,59053.91
2023-04-12T22:29:44.762Z,58689.53
2023-04-12T22:32:11.197Z,58356.25
2023-04-12T22:34:39.952Z,58468.03
2023-04-12T22:37:16.403Z,58507.38
2023-04-12T22:39:42.761Z,58704.03
2023-04-12T22:42:09.086Z,58457.69
2023-04-12T22:44:43.687Z,58163.75
2023-04-12T22:47:10.367Z,57660.81
2023-04-12T22:49:44.072Z,58037.50
2023-04-12T22:52:10.483Z,57495.25
2023-04-12T22:54:37.163Z,57946.44
2023-04-12T22:57:04.277Z,58169.97
2023-04-12T22:59:30.694Z,58219.66
2023-04-12T23:01:57.099Z,58581.91
2023-04-12T23:04:26.367Z,58151.34
2023-04-12T23:06:55.026Z,57861.56
2023-04-12T23:09:22.540Z,57288.31
2023-04-12T23:12:00.001Z,57046.19
2023-04-12T23:14:32.024Z,56481.31
2023-04-12T23:16:58.322Z,55707.59
2023-04-12T23:19:24.682Z,55440.75
2023-04-12T23:21:51.033Z,55298.03
2023-04-12T23:24:17.728Z,55037.41
2023-04-12T23:26:47.767Z,54989.84
2023-04-12T23:29:14.269Z,54956.75
2023-04-12T23:31:41.158Z,54902.97
2023-04-12T23:34:07.516Z,54915.38
2023-04-12T23:36:33.880Z,54843.00
2023-04-12T23:39:00.362Z,54876.09
2023-04-12T23:41:27.446Z,54785.09
2023-04-12T23:43:57.101Z,54830.59
2023-04-12T23:46:23.754Z,54791.31
2023-04-12T23:48:54.385Z,54894.72
2023-04-12T23:51:21.957Z,54989.84
2023-04-12T23:53:50.965Z,54892.63
2023-04-12T23:56:18.548Z,54863.69
2023-04-12T23:58:54.218Z,54851.28
